KELM/ELM METAR and TAF weather

Enter ICAO airport designator
Station Type Date Time Source
KELM METAR 2019/10/21 05:16 UTC NOAA

KELM 210516Z AUTO 00000KT 1/4SM R24/1000V1400FT FG VV002 04/03 A3003 RMK AO2 T00390033


Station Type Date Time Source
KELM Decoded METAR 2019/10/21 05:16 UTC NOAA

ELMIRA COUNTY AIRPORT, NY, United States (KELM) 42-10N 76-54W 302M
Oct 21, 2019 - 01:16 AM EDT / 2019.10.21 0516 UTC
Wind: Calm (direction variable):0
Visibility: 1/4 mile(s):0
Sky conditions: obscured
Weather: fog
Temperature: 39.0 F (3.9 C)
Dew Point: 37.9 F (3.3 C)
Relative Humidity: 95%
Pressure (altimeter): 30.03 in. Hg (1016 hPa)
ob: KELM 210516Z AUTO 00000KT 1/4SM R24/1000V1400FT FG VV002 04/03 A3003 RMK AO2 T00390033
cycle: 5

Station Type Date Time Source
KELM TAF 2019/10/21 05:54 UTC NOAA

TAF
AMD KELM 210451Z 2105/2124 00000KT 1SM BR VV001
FM210700 00000KT 1/4SM FG VV001
FM211230 00000KT 3/4SM BR OVC002
FM211330 VRB03KT 3SM BR SCT250
FM211400 13005KT P6SM FEW210

Example: see airport list